sensor_id;sensor_type;location;lat;lon;timestamp;P1;durP1;ratioP1;P2;durP2;ratioP2
13687;SDS011;6916;51.504;7.416;2023-09-30T00:08:04;9.80;;;3.33;;
13687;SDS011;6916;51.504;7.416;2023-09-30T00:18:08;11.23;;;3.80;;
13687;SDS011;6916;51.504;7.416;2023-09-30T00:28:10;9.80;;;2.83;;
13687;SDS011;6916;51.504;7.416;2023-09-30T00:38:13;11.98;;;3.35;;
13687;SDS011;6916;51.504;7.416;2023-09-30T00:48:15;7.93;;;3.30;;
13687;SDS011;6916;51.504;7.416;2023-09-30T00:58:19;11.50;;;4.00;;
13687;SDS011;6916;51.504;7.416;2023-09-30T01:08:20;11.20;;;3.00;;
13687;SDS011;6916;51.504;7.416;2023-09-30T01:18:23;12.02;;;3.30;;
13687;SDS011;6916;51.504;7.416;2023-09-30T01:28:27;11.30;;;4.50;;
13687;SDS011;6916;51.504;7.416;2023-09-30T01:38:28;15.07;;;4.63;;
13687;SDS011;6916;51.504;7.416;2023-09-30T01:48:31;18.85;;;6.43;;
13687;SDS011;6916;51.504;7.416;2023-09-30T01:58:33;13.85;;;5.53;;
13687;SDS011;6916;51.504;7.416;2023-09-30T02:08:36;14.50;;;4.93;;
13687;SDS011;6916;51.504;7.416;2023-09-30T02:18:38;17.00;;;5.10;;
13687;SDS011;6916;51.504;7.416;2023-09-30T02:28:42;14.77;;;5.07;;
13687;SDS011;6916;51.504;7.416;2023-09-30T02:38:43;11.67;;;3.63;;
13687;SDS011;6916;51.504;7.416;2023-09-30T02:48:47;12.57;;;3.45;;
13687;SDS011;6916;51.504;7.416;2023-09-30T02:58:50;13.52;;;4.15;;
13687;SDS011;6916;51.504;7.416;2023-09-30T03:08:53;10.48;;;3.17;;
13687;SDS011;6916;51.504;7.416;2023-09-30T03:18:55;11.23;;;3.93;;
13687;SDS011;6916;51.504;7.416;2023-09-30T03:28:58;17.20;;;3.90;;
13687;SDS011;6916;51.504;7.416;2023-09-30T03:39:00;11.35;;;3.58;;
13687;SDS011;6916;51.504;7.416;2023-09-30T03:49:07;8.52;;;3.03;;
13687;SDS011;6916;51.504;7.416;2023-09-30T03:59:09;9.85;;;2.97;;
13687;SDS011;6916;51.504;7.416;2023-09-30T04:09:12;10.55;;;2.90;;
13687;SDS011;6916;51.504;7.416;2023-09-30T04:19:16;10.10;;;3.35;;
13687;SDS011;6916;51.504;7.416;2023-09-30T04:29:19;11.40;;;3.22;;
13687;SDS011;6916;51.504;7.416;2023-09-30T04:39:23;9.27;;;3.27;;
13687;SDS011;6916;51.504;7.416;2023-09-30T04:49:26;10.07;;;2.85;;
13687;SDS011;6916;51.504;7.416;2023-09-30T04:59:28;12.88;;;2.75;;
13687;SDS011;6916;51.504;7.416;2023-09-30T05:09:31;7.65;;;2.65;;
13687;SDS011;6916;51.504;7.416;2023-09-30T05:19:33;8.93;;;2.27;;
13687;SDS011;6916;51.504;7.416;2023-09-30T05:29:38;11.60;;;2.35;;
13687;SDS011;6916;51.504;7.416;2023-09-30T05:39:41;14.17;;;4.00;;
13687;SDS011;6916;51.504;7.416;2023-09-30T05:49:45;14.60;;;3.10;;
13687;SDS011;6916;51.504;7.416;2023-09-30T05:59:48;11.80;;;2.73;;
13687;SDS011;6916;51.504;7.416;2023-09-30T06:09:51;11.07;;;2.90;;
13687;SDS011;6916;51.504;7.416;2023-09-30T06:20:00;11.97;;;3.00;;
13687;SDS011;6916;51.504;7.416;2023-09-30T06:30:11;9.30;;;2.90;;
13687;SDS011;6916;51.504;7.416;2023-09-30T06:40:13;10.07;;;3.20;;
13687;SDS011;6916;51.504;7.416;2023-09-30T06:50:16;10.83;;;3.43;;
13687;SDS011;6916;51.504;7.416;2023-09-30T07:00:18;11.13;;;4.15;;
13687;SDS011;6916;51.504;7.416;2023-09-30T07:10:21;11.25;;;3.83;;
13687;SDS011;6916;51.504;7.416;2023-09-30T07:20:23;12.63;;;4.03;;
13687;SDS011;6916;51.504;7.416;2023-09-30T07:30:26;10.10;;;3.90;;
13687;SDS011;6916;51.504;7.416;2023-09-30T07:40:28;9.23;;;4.47;;
13687;SDS011;6916;51.504;7.416;2023-09-30T07:50:31;10.25;;;4.50;;
13687;SDS011;6916;51.504;7.416;2023-09-30T08:00:34;13.63;;;3.63;;
13687;SDS011;6916;51.504;7.416;2023-09-30T08:10:39;12.07;;;3.95;;
13687;SDS011;6916;51.504;7.416;2023-09-30T08:20:41;9.97;;;3.60;;
13687;SDS011;6916;51.504;7.416;2023-09-30T08:30:44;7.60;;;3.45;;
13687;SDS011;6916;51.504;7.416;2023-09-30T08:40:46;10.23;;;3.35;;
13687;SDS011;6916;51.504;7.416;2023-09-30T08:50:51;9.23;;;2.88;;
13687;SDS011;6916;51.504;7.416;2023-09-30T09:00:54;6.57;;;2.50;;
13687;SDS011;6916;51.504;7.416;2023-09-30T09:10:58;9.73;;;3.03;;
13687;SDS011;6916;51.504;7.416;2023-09-30T09:21:16;7.57;;;2.65;;
13687;SDS011;6916;51.504;7.416;2023-09-30T09:31:29;10.60;;;2.75;;
13687;SDS011;6916;51.504;7.416;2023-09-30T09:41:36;6.25;;;1.98;;
13687;SDS011;6916;51.504;7.416;2023-09-30T09:51:52;8.55;;;2.65;;
13687;SDS011;6916;51.504;7.416;2023-09-30T10:01:54;8.02;;;1.90;;
13687;SDS011;6916;51.504;7.416;2023-09-30T10:11:59;6.05;;;1.83;;
13687;SDS011;6916;51.504;7.416;2023-09-30T10:22:20;8.63;;;2.45;;
13687;SDS011;6916;51.504;7.416;2023-09-30T10:43:02;6.10;;;1.92;;
13687;SDS011;6916;51.504;7.416;2023-09-30T10:53:04;8.68;;;1.90;;
13687;SDS011;6916;51.504;7.416;2023-09-30T11:03:10;5.47;;;1.60;;
13687;SDS011;6916;51.504;7.416;2023-09-30T11:13:13;8.45;;;2.30;;
13687;SDS011;6916;51.504;7.416;2023-09-30T11:23:17;3.65;;;1.63;;
13687;SDS011;6916;51.504;7.416;2023-09-30T11:33:19;7.25;;;2.30;;
13687;SDS011;6916;51.504;7.416;2023-09-30T11:43:37;4.07;;;2.03;;
13687;SDS011;6916;51.504;7.416;2023-09-30T11:54:03;5.72;;;1.95;;
13687;SDS011;6916;51.504;7.416;2023-09-30T12:04:08;3.78;;;1.10;;
13687;SDS011;6916;51.504;7.416;2023-09-30T12:14:21;2.92;;;1.50;;
13687;SDS011;6916;51.504;7.416;2023-09-30T12:24:27;2.30;;;1.50;;
13687;SDS011;6916;51.504;7.416;2023-09-30T12:34:33;4.30;;;1.63;;
13687;SDS011;6916;51.504;7.416;2023-09-30T12:44:40;4.10;;;1.30;;
13687;SDS011;6916;51.504;7.416;2023-09-30T12:54:43;4.78;;;1.60;;
13687;SDS011;6916;51.504;7.416;2023-09-30T13:04:53;4.75;;;1.50;;
13687;SDS011;6916;51.504;7.416;2023-09-30T13:15:01;3.33;;;1.42;;
13687;SDS011;6916;51.504;7.416;2023-09-30T13:25:10;5.32;;;2.10;;
13687;SDS011;6916;51.504;7.416;2023-09-30T13:35:17;5.30;;;1.48;;
13687;SDS011;6916;51.504;7.416;2023-09-30T13:45:43;3.17;;;1.60;;
13687;SDS011;6916;51.504;7.416;2023-09-30T13:55:52;3.13;;;1.45;;
13687;SDS011;6916;51.504;7.416;2023-09-30T14:06:03;3.75;;;1.63;;
13687;SDS011;6916;51.504;7.416;2023-09-30T14:16:11;6.03;;;1.27;;
13687;SDS011;6916;51.504;7.416;2023-09-30T14:26:15;5.00;;;1.85;;
13687;SDS011;6916;51.504;7.416;2023-09-30T14:36:17;5.50;;;1.60;;
13687;SDS011;6916;51.504;7.416;2023-09-30T14:46:20;3.35;;;1.63;;
13687;SDS011;6916;51.504;7.416;2023-09-30T14:56:22;5.55;;;2.15;;
13687;SDS011;6916;51.504;7.416;2023-09-30T15:06:25;4.80;;;1.80;;
13687;SDS011;6916;51.504;7.416;2023-09-30T15:16:28;3.10;;;1.88;;
13687;SDS011;6916;51.504;7.416;2023-09-30T15:26:31;5.30;;;2.13;;
13687;SDS011;6916;51.504;7.416;2023-09-30T15:36:33;6.40;;;2.70;;
13687;SDS011;6916;51.504;7.416;2023-09-30T15:46:36;4.97;;;2.90;;
13687;SDS011;6916;51.504;7.416;2023-09-30T15:56:37;6.10;;;2.70;;
13687;SDS011;6916;51.504;7.416;2023-09-30T16:06:42;6.20;;;2.80;;
13687;SDS011;6916;51.504;7.416;2023-09-30T16:16:43;5.47;;;2.97;;
13687;SDS011;6916;51.504;7.416;2023-09-30T16:26:46;4.32;;;2.85;;
13687;SDS011;6916;51.504;7.416;2023-09-30T16:36:48;5.55;;;2.80;;
13687;SDS011;6916;51.504;7.416;2023-09-30T16:46:51;10.63;;;3.42;;
13687;SDS011;6916;51.504;7.416;2023-09-30T16:56:53;4.50;;;3.28;;
13687;SDS011;6916;51.504;7.416;2023-09-30T17:06:59;5.43;;;3.00;;
13687;SDS011;6916;51.504;7.416;2023-09-30T17:17:01;4.03;;;2.83;;
13687;SDS011;6916;51.504;7.416;2023-09-30T17:27:05;6.97;;;3.10;;
13687;SDS011;6916;51.504;7.416;2023-09-30T17:37:07;4.35;;;2.60;;
13687;SDS011;6916;51.504;7.416;2023-09-30T17:47:10;7.88;;;3.00;;
13687;SDS011;6916;51.504;7.416;2023-09-30T17:57:12;4.43;;;3.30;;
13687;SDS011;6916;51.504;7.416;2023-09-30T18:07:16;6.43;;;3.50;;
13687;SDS011;6916;51.504;7.416;2023-09-30T18:17:17;8.98;;;3.92;;
13687;SDS011;6916;51.504;7.416;2023-09-30T18:27:20;7.10;;;3.80;;
13687;SDS011;6916;51.504;7.416;2023-09-30T18:37:22;6.40;;;3.65;;
13687;SDS011;6916;51.504;7.416;2023-09-30T18:47:25;4.82;;;3.90;;
13687;SDS011;6916;51.504;7.416;2023-09-30T18:57:28;4.60;;;3.53;;
13687;SDS011;6916;51.504;7.416;2023-09-30T19:07:31;8.23;;;4.00;;
13687;SDS011;6916;51.504;7.416;2023-09-30T19:17:32;5.22;;;2.80;;
13687;SDS011;6916;51.504;7.416;2023-09-30T19:27:35;6.78;;;3.33;;
13687;SDS011;6916;51.504;7.416;2023-09-30T19:37:37;6.13;;;3.38;;
13687;SDS011;6916;51.504;7.416;2023-09-30T19:47:41;5.78;;;3.70;;
13687;SDS011;6916;51.504;7.416;2023-09-30T19:57:43;7.95;;;4.20;;
13687;SDS011;6916;51.504;7.416;2023-09-30T20:07:46;6.63;;;3.47;;
13687;SDS011;6916;51.504;7.416;2023-09-30T20:17:48;6.60;;;3.63;;
13687;SDS011;6916;51.504;7.416;2023-09-30T20:27:51;3.85;;;3.28;;
13687;SDS011;6916;51.504;7.416;2023-09-30T20:37:53;7.23;;;3.47;;
13687;SDS011;6916;51.504;7.416;2023-09-30T20:47:57;8.45;;;3.75;;
13687;SDS011;6916;51.504;7.416;2023-09-30T20:58:02;7.07;;;3.92;;
13687;SDS011;6916;51.504;7.416;2023-09-30T21:08:06;7.00;;;3.80;;
13687;SDS011;6916;51.504;7.416;2023-09-30T21:18:09;5.00;;;3.60;;
13687;SDS011;6916;51.504;7.416;2023-09-30T21:28:12;4.70;;;3.30;;
13687;SDS011;6916;51.504;7.416;2023-09-30T21:38:15;6.80;;;3.42;;
13687;SDS011;6916;51.504;7.416;2023-09-30T21:48:19;6.30;;;3.30;;
13687;SDS011;6916;51.504;7.416;2023-09-30T21:58:20;6.37;;;3.60;;
13687;SDS011;6916;51.504;7.416;2023-09-30T22:08:24;4.70;;;3.53;;
13687;SDS011;6916;51.504;7.416;2023-09-30T22:18:26;6.03;;;3.75;;
13687;SDS011;6916;51.504;7.416;2023-09-30T22:28:29;6.28;;;3.80;;
13687;SDS011;6916;51.504;7.416;2023-09-30T22:38:31;6.97;;;3.33;;
13687;SDS011;6916;51.504;7.416;2023-09-30T22:48:34;5.07;;;3.45;;
13687;SDS011;6916;51.504;7.416;2023-09-30T22:58:36;6.32;;;4.05;;
13687;SDS011;6916;51.504;7.416;2023-09-30T23:08:48;8.90;;;4.07;;
13687;SDS011;6916;51.504;7.416;2023-09-30T23:18:50;6.85;;;3.88;;
13687;SDS011;6916;51.504;7.416;2023-09-30T23:28:53;4.13;;;3.13;;
13687;SDS011;6916;51.504;7.416;2023-09-30T23:38:55;4.15;;;3.45;;
13687;SDS011;6916;51.504;7.416;2023-09-30T23:48:58;6.88;;;3.50;;
13687;SDS011;6916;51.504;7.416;2023-09-30T23:59:03;6.07;;;3.47;;
